Eskridge, Kansas
Current Conditions -  °F | °C
As of 1:53 AM on Sunday 26 Oct 2014 (Local Time) from KFOE Reporting Station
Clear Clear  
Wind Chill: 17°   Ceiling: Unl
Heat Index: 17°   Visibility: 10mi
Dew Point: 14°   Wind: 8mph
Humidity: 84%   Direction: 110°ESE
Pressure: 29.95"   Gusts: NA
Location:  38.86°N, 96.11°W
Report Text: KFOE 260653Z AUTO 11007KT 10SM CLR 17/14 A2995 RMK AO2 SLP132 T01720144
Loading
Personal Weather Stations






























Interactive Weather Map
Tropical Storm Tracking
New forecast layout! Learn more

10-Day Weather Forecast

Advertisements
Track Severe Weather on mobile